Sarzana, Italy

9:59 PM CEST on August 30, 2014 (GMT +0200)
La Serra | Change Station
CLOSE
Current Station
Personal Weather Station
Location: Lerici, SP
Elevation: 623 ft
Nearby Weather Stations

Elev 623 ft 44.07 °N, 9.92 °E | Updated 3 minutes ago

Partly Cloudy
Partly Cloudy
69.6 °F
Feels Like 69.6 °F
N
3.2
Wind Variable Wind from SE
Gusts 3.8 mph

Today
High -- | Low -- °F
--% Chance of Precip.
Yesterday
High -- | Low -- °F
Precip. -- in
6:40 AM 8:00 PM
Waxing Crescent, 24% visible
Pressure 29.98 in
Visibility 6.2 miles
Clouds Few 2000 ft
Dew Point 68 °F
Humidity 94%
Rainfall 0.00 in
Snow Depth Not available.
UV 0 out of 12
Pollen Not available.
Air Quality Not available.
Flu Activity Not available.
METAR LIRP 301945Z 30002KT 9999 FEW020 23/22 Q1015 NOSIG

More Conditions Fewer Conditions

Pressure 29.98 in
Visibility 6.2 miles
Clouds Few 2000 ft
Dew Point 68 °F
Humidity 94%
Rainfall 0.00 in
Snow Depth Not available.
UV 0 out of 12
Pollen Not available.
Air Quality Not available.
Flu Activity Not available.
METAR LIRP 301945Z 30002KT 9999 FEW020 23/22 Q1015 NOSIG

More Conditions Fewer Conditions

10-Day Weather Forecast

Almanac

Astronomy

Aug. 30, 2014 Rise Set
Actual Time 6:40 AM CEST 8:00 PM CEST
Civil Twilight 6:10 AM CEST 8:29 PM CEST
Nautical Twilight 5:34 AM CEST 9:05 PM CEST
Astronomical Twilight 4:56 AM CEST 9:43 PM CEST
Moon 11:22 AM CEST 10:12 PM CEST
Length of Visible Light 14h 19m
Length of Day
13h 19m
Tomorrow will be 2m 55s shorter.
Waxing Crescent, 24% of the Moon is Illuminated
Today
Waxing Crescent
Sep 2
First Quarter
Sep 8
Full
Sep 15
Last Quarter
Sep 24
New

Today's Extremes

Country Highs Country Lows

Community

WunderPhotos

Upload Photos

1,748,614 photos uploaded!

WunderBlogs® & News

Nearby

Snow Depth

Not available.

Earthquake Activity

City Distance Mag. Time & Date
No recent earthquake activity has been reported nearby.
Minimum magnitude displayed is 2.5.

Coastal Water Temperatures

Place Temperature
No Stations Reporting

Nearby Weather Stations